Isle of North Uist, United Kingdom
Current Conditions -  °F | °C
As of 6:20 PM on Wednesday 22 Oct 2014 (Local Time) from EGPL Reporting Station
Broken Clouds Broken Clouds  
Wind Chill: 12°   Ceiling: 500
Heat Index: 12°   Visibility: NA
Dew Point: 11°   Wind: 24mph
Humidity: 94%   Direction: 230°SW
Pressure: 29.74"   Gusts: NA
Location:  57.6°N, 7.16°W
Report Text: EGPL 221720Z AUTO 23021KT //// // BKN005/// BKN010/// 12/11 Q1007
Loading
Personal Weather Stations






























Interactive Weather Map
Tropical Storm Tracking
New forecast layout! Learn more

10-Day Weather Forecast

Advertisements
Track Severe Weather on mobile